createdAt,value
2023-05-24T00:00:06.292Z,84.02
2023-05-24T00:02:32.846Z,84.03
2023-05-24T00:05:01.096Z,84.29
2023-05-24T00:07:27.880Z,84.27
2023-05-24T00:09:54.404Z,84.63
2023-05-24T00:12:20.898Z,84.64
2023-05-24T00:14:47.433Z,84.65
2023-05-24T00:17:14.080Z,84.67
2023-05-24T00:19:40.661Z,84.78
2023-05-24T00:22:07.276Z,85.03
2023-05-24T00:24:33.796Z,85.19
2023-05-24T00:27:01.062Z,85.48
2023-05-24T00:29:27.685Z,85.53
2023-05-24T00:31:54.720Z,85.65
2023-05-24T00:34:21.215Z,85.72
2023-05-24T00:36:47.722Z,86.10
2023-05-24T00:39:14.292Z,85.88
2023-05-24T00:41:40.802Z,85.67
2023-05-24T00:44:07.408Z,85.00
2023-05-24T00:46:35.162Z,84.65
2023-05-24T00:49:01.845Z,85.04
2023-05-24T00:51:28.717Z,85.63
2023-05-24T00:53:56.171Z,85.87
2023-05-24T00:56:23.312Z,86.06
2023-05-24T00:58:54.501Z,85.81
2023-05-24T01:01:21.058Z,85.70
2023-05-24T01:03:48.195Z,85.02
2023-05-24T01:06:16.234Z,85.29
2023-05-24T01:09:05.016Z,85.31
2023-05-24T01:11:55.872Z,85.18
2023-05-24T01:14:40.924Z,84.99
2023-05-24T01:17:20.950Z,84.97
2023-05-24T01:20:10.119Z,85.33
2023-05-24T01:22:58.353Z,85.74
2023-05-24T01:25:46.937Z,85.67
2023-05-24T01:28:13.830Z,85.66
2023-05-24T01:30:41.640Z,85.80
2023-05-24T01:33:08.900Z,86.21
2023-05-24T01:35:40.257Z,86.51
2023-05-24T01:38:07.241Z,86.57
2023-05-24T01:40:34.222Z,86.61
2023-05-24T01:43:26.372Z,86.51
2023-05-24T01:45:55.809Z,86.54
2023-05-24T01:48:28.989Z,86.68
2023-05-24T01:50:59.759Z,86.86
2023-05-24T01:53:32.790Z,86.80
2023-05-24T01:56:02.145Z,87.06
2023-05-24T01:58:30.402Z,86.88
2023-05-24T02:00:58.012Z,87.27
2023-05-24T02:03:24.596Z,86.85
2023-05-24T02:05:51.481Z,87.70
2023-05-24T02:08:17.988Z,88.02
2023-05-24T02:10:44.630Z,87.75
2023-05-24T02:13:11.213Z,87.17
2023-05-24T02:15:37.786Z,86.67
2023-05-24T02:18:04.776Z,86.84
2023-05-24T02:20:31.543Z,86.75
2023-05-24T02:22:58.325Z,86.46
2023-05-24T02:25:24.917Z,85.94
2023-05-24T02:27:52.194Z,85.83
2023-05-24T02:30:18.923Z,86.09
2023-05-24T02:32:45.543Z,85.96
2023-05-24T02:35:12.568Z,85.71
2023-05-24T02:37:39.086Z,85.45
2023-05-24T02:40:06.476Z,85.89
2023-05-24T02:42:32.982Z,85.92
2023-05-24T02:44:59.476Z,85.99
2023-05-24T02:47:29.243Z,86.11
2023-05-24T02:49:57.076Z,86.38
2023-05-24T02:52:23.856Z,86.27
2023-05-24T02:54:50.611Z,86.95
2023-05-24T02:57:17.134Z,87.52
2023-05-24T02:59:44.031Z,87.42
2023-05-24T03:02:13.678Z,87.96
2023-05-24T03:04:40.351Z,88.31
2023-05-24T03:07:06.912Z,88.34
2023-05-24T03:09:33.582Z,88.03
2023-05-24T03:12:00.113Z,88.02
2023-05-24T03:14:26.631Z,88.23
2023-05-24T03:16:53.173Z,88.31
2023-05-24T03:19:19.683Z,88.73
2023-05-24T03:21:46.160Z,88.78
2023-05-24T03:24:13.287Z,88.94
2023-05-24T03:26:42.867Z,88.15
2023-05-24T03:29:09.393Z,87.86
2023-05-24T03:31:36.062Z,86.81
2023-05-24T03:34:02.650Z,86.75
2023-05-24T03:36:29.313Z,86.86
2023-05-24T03:38:58.288Z,87.33
2023-05-24T03:41:25.094Z,87.71
2023-05-24T03:43:52.497Z,87.60
2023-05-24T03:46:19.194Z,87.78
2023-05-24T03:48:45.763Z,87.86
2023-05-24T03:51:12.466Z,87.55
2023-05-24T03:53:39.164Z,87.04
2023-05-24T03:56:05.950Z,87.22
2023-05-24T03:58:32.455Z,87.57
2023-05-24T04:00:59.080Z,87.65
2023-05-24T04:03:26.319Z,87.80
2023-05-24T04:05:53.733Z,88.20
2023-05-24T04:08:20.512Z,88.33
2023-05-24T04:10:47.082Z,88.74
2023-05-24T04:13:13.593Z,88.94
2023-05-24T04:15:40.640Z,89.26
2023-05-24T04:18:07.346Z,89.22
2023-05-24T04:20:33.984Z,89.21
2023-05-24T04:23:00.614Z,89.26
2023-05-24T04:25:27.615Z,89.38
2023-05-24T04:27:54.288Z,89.63
2023-05-24T04:30:21.509Z,89.69
2023-05-24T04:32:48.601Z,89.98
2023-05-24T04:35:16.760Z,89.75
2023-05-24T04:37:44.514Z,90.03
2023-05-24T04:40:11.701Z,89.61
2023-05-24T04:42:38.453Z,89.37
2023-05-24T04:45:05.730Z,89.81
2023-05-24T04:47:32.328Z,89.56
2023-05-24T04:49:58.831Z,89.27
2023-05-24T04:52:25.441Z,88.79
2023-05-24T04:54:51.962Z,88.60
2023-05-24T04:57:18.520Z,88.76
2023-05-24T04:59:45.075Z,89.08
2023-05-24T05:02:11.654Z,89.84
2023-05-24T05:04:38.293Z,90.70
2023-05-24T05:07:04.993Z,91.24
2023-05-24T05:09:31.625Z,91.34
2023-05-24T05:11:58.463Z,91.92
2023-05-24T05:14:24.982Z,91.85
2023-05-24T05:16:51.556Z,92.48
2023-05-24T05:19:19.141Z,92.72
2023-05-24T05:21:45.873Z,93.25
2023-05-24T05:24:12.698Z,93.29
2023-05-24T05:26:39.235Z,93.28
2023-05-24T05:29:05.804Z,93.21
2023-05-24T05:31:32.426Z,92.99
2023-05-24T05:33:59.022Z,93.10
2023-05-24T05:36:25.712Z,93.08
2023-05-24T05:38:52.219Z,92.88
2023-05-24T05:41:18.825Z,93.23
2023-05-24T05:43:45.367Z,93.19
2023-05-24T05:46:13.334Z,92.53
2023-05-24T05:48:39.849Z,92.88
2023-05-24T05:51:06.433Z,92.74
2023-05-24T05:53:36.200Z,92.07
2023-05-24T05:56:02.691Z,91.28
2023-05-24T05:58:29.152Z,91.13
2023-05-24T06:00:55.829Z,90.83
2023-05-24T06:03:22.536Z,90.69
2023-05-24T06:05:49.406Z,90.12
2023-05-24T06:08:15.931Z,89.09
2023-05-24T06:10:42.732Z,89.29
2023-05-24T06:13:09.448Z,88.30
2023-05-24T06:15:35.925Z,88.24
2023-05-24T06:18:02.545Z,87.79
2023-05-24T06:20:29.346Z,86.90
2023-05-24T06:22:57.112Z,86.39
2023-05-24T06:25:24.523Z,85.88
2023-05-24T06:27:54.439Z,86.23
2023-05-24T06:30:20.969Z,86.41
2023-05-24T06:32:47.615Z,85.96
2023-05-24T06:35:14.236Z,85.17
2023-05-24T06:37:40.879Z,85.14
2023-05-24T06:40:09.576Z,83.86
2023-05-24T06:42:36.961Z,83.22
2023-05-24T06:45:03.921Z,82.36
2023-05-24T06:47:30.622Z,82.03
2023-05-24T06:49:57.523Z,81.50
2023-05-24T06:52:24.144Z,80.25
2023-05-24T06:54:50.682Z,80.11
2023-05-24T06:57:17.177Z,80.11
2023-05-24T06:59:43.760Z,78.22
2023-05-24T07:02:17.281Z,77.88
2023-05-24T07:04:43.886Z,78.15
2023-05-24T07:07:13.118Z,77.99
2023-05-24T07:09:41.562Z,77.38
2023-05-24T07:12:09.093Z,76.91
2023-05-24T07:14:36.134Z,76.43
2023-05-24T07:17:02.851Z,75.39
2023-05-24T07:19:29.830Z,75.11
2023-05-24T07:21:56.848Z,73.98
2023-05-24T07:24:24.145Z,74.81
2023-05-24T07:26:51.986Z,73.62
2023-05-24T07:29:18.538Z,71.79
2023-05-24T07:31:45.509Z,69.32
2023-05-24T07:34:12.064Z,70.28
2023-05-24T07:36:38.560Z,70.45
2023-05-24T07:39:06.230Z,69.40
2023-05-24T07:41:33.478Z,70.57
2023-05-24T07:44:00.217Z,67.94
2023-05-24T07:46:26.757Z,67.39
2023-05-24T07:48:53.461Z,68.65
2023-05-24T07:51:20.876Z,66.47
2023-05-24T07:53:47.451Z,67.73
2023-05-24T07:56:14.078Z,68.80
2023-05-24T07:58:41.907Z,68.50
2023-05-24T08:01:08.789Z,68.93
2023-05-24T08:03:36.702Z,69.58
2023-05-24T08:06:04.149Z,69.15
2023-05-24T08:08:30.849Z,66.98
2023-05-24T08:10:57.377Z,65.91
2023-05-24T08:13:24.509Z,67.75
2023-05-24T08:15:50.990Z,63.76
2023-05-24T08:18:17.476Z,64.41
2023-05-24T08:20:44.038Z,60.75
2023-05-24T08:23:10.653Z,62.38
2023-05-24T08:25:37.992Z,62.67
2023-05-24T08:28:04.528Z,64.45
2023-05-24T08:30:32.397Z,62.37
2023-05-24T08:32:58.966Z,61.62
2023-05-24T08:35:25.675Z,62.59
2023-05-24T08:37:52.212Z,64.24
2023-05-24T08:40:18.873Z,60.35
2023-05-24T08:42:46.541Z,60.00
2023-05-24T08:45:15.070Z,61.63
2023-05-24T08:47:42.597Z,60.27
2023-05-24T08:50:10.230Z,60.85
2023-05-24T08:52:37.118Z,58.33
2023-05-24T08:55:07.735Z,58.70
2023-05-24T08:57:39.166Z,57.35
2023-05-24T09:00:11.830Z,56.28
2023-05-24T09:02:43.450Z,58.92
2023-05-24T09:05:11.843Z,56.42
2023-05-24T09:07:38.856Z,55.81
2023-05-24T09:10:07.480Z,57.23
2023-05-24T09:12:38.604Z,57.30
2023-05-24T09:15:07.234Z,55.04
2023-05-24T09:17:38.348Z,55.16
2023-05-24T09:20:11.243Z,55.58
2023-05-24T09:22:41.020Z,53.98
2023-05-24T09:25:10.011Z,54.67
2023-05-24T09:27:36.884Z,54.35
2023-05-24T09:30:05.552Z,53.11
2023-05-24T09:32:32.391Z,52.58
2023-05-24T09:34:59.466Z,53.33
2023-05-24T09:37:32.292Z,53.34
2023-05-24T09:39:59.780Z,54.13
2023-05-24T09:42:28.629Z,56.85
2023-05-24T09:45:08.726Z,54.79
2023-05-24T09:47:36.877Z,53.75
2023-05-24T09:50:06.735Z,53.45
2023-05-24T09:52:37.035Z,54.71
2023-05-24T09:55:17.686Z,56.72
2023-05-24T09:57:45.662Z,56.35
2023-05-24T10:00:21.725Z,55.85
2023-05-24T10:03:00.977Z,53.79
2023-05-24T10:05:27.820Z,56.37
2023-05-24T10:07:55.299Z,57.08
2023-05-24T10:10:22.805Z,57.87
2023-05-24T10:12:50.284Z,57.95
2023-05-24T10:15:17.099Z,55.44
2023-05-24T10:17:43.624Z,56.37
2023-05-24T10:20:12.575Z,57.16
2023-05-24T10:22:48.079Z,58.03
2023-05-24T10:25:20.609Z,58.65
2023-05-24T10:27:51.215Z,57.13
2023-05-24T10:30:43.815Z,55.83
2023-05-24T10:33:13.984Z,56.75
2023-05-24T10:35:41.433Z,56.96
2023-05-24T10:38:09.088Z,57.73
2023-05-24T10:40:41.317Z,56.38
2023-05-24T10:43:11.229Z,55.05
2023-05-24T10:45:41.991Z,56.04
2023-05-24T10:48:14.602Z,56.12
2023-05-24T10:50:42.676Z,55.71
2023-05-24T10:53:16.049Z,56.67
2023-05-24T10:55:56.499Z,56.08
2023-05-24T10:58:47.261Z,55.63
2023-05-24T11:01:34.945Z,57.53
2023-05-24T11:04:18.947Z,57.86
2023-05-24T11:06:48.102Z,55.44
2023-05-24T11:09:16.036Z,56.62
2023-05-24T11:11:45.912Z,56.21
2023-05-24T11:14:13.656Z,57.58
2023-05-24T11:16:40.758Z,56.55
2023-05-24T11:19:22.061Z,56.86
2023-05-24T11:21:50.924Z,55.46
2023-05-24T11:24:18.998Z,55.82
2023-05-24T11:26:46.253Z,56.15
2023-05-24T11:29:17.574Z,56.04
2023-05-24T11:31:54.627Z,56.86
2023-05-24T11:34:21.894Z,54.94
2023-05-24T11:36:49.049Z,57.37
2023-05-24T11:39:16.387Z,55.09
2023-05-24T11:41:43.704Z,54.68
2023-05-24T11:44:11.852Z,54.59
2023-05-24T11:46:39.893Z,53.73
2023-05-24T11:49:07.030Z,55.39
2023-05-24T11:51:35.912Z,54.07
2023-05-24T11:54:02.651Z,52.98
2023-05-24T11:56:33.180Z,53.26
2023-05-24T11:59:11.115Z,54.04
2023-05-24T12:01:38.335Z,52.53
2023-05-24T12:04:11.994Z,53.26
2023-05-24T12:06:43.889Z,53.31
2023-05-24T12:09:13.628Z,52.67
2023-05-24T12:11:46.621Z,53.05
2023-05-24T12:14:28.615Z,53.35
2023-05-24T12:16:57.226Z,53.71
2023-05-24T12:19:33.786Z,52.70
2023-05-24T12:22:02.031Z,54.03
2023-05-24T12:24:29.292Z,53.26
2023-05-24T12:27:06.697Z,54.43
2023-05-24T12:29:41.890Z,53.23
2023-05-24T12:32:15.282Z,52.25
2023-05-24T12:34:43.540Z,54.49
2023-05-24T12:37:12.965Z,51.62
2023-05-24T12:39:42.552Z,52.07
2023-05-24T12:42:12.383Z,54.43
2023-05-24T12:44:39.690Z,54.97
2023-05-24T12:47:08.649Z,53.84
2023-05-24T12:49:36.270Z,55.87
2023-05-24T12:52:03.414Z,55.67
2023-05-24T12:54:30.490Z,55.10
2023-05-24T12:57:00.051Z,52.87
2023-05-24T12:59:28.563Z,52.68
2023-05-24T13:01:55.750Z,52.75
2023-05-24T13:04:24.518Z,52.12
2023-05-24T13:06:51.214Z,53.66
2023-05-24T13:09:22.128Z,53.84
2023-05-24T13:11:49.079Z,54.21
2023-05-24T13:14:16.968Z,54.42
2023-05-24T13:16:44.383Z,51.45
2023-05-24T13:19:12.541Z,54.85
2023-05-24T13:21:39.910Z,52.69
2023-05-24T13:24:07.638Z,54.11
2023-05-24T13:26:38.484Z,54.87
2023-05-24T13:31:38.168Z,54.26
2023-05-24T13:34:05.492Z,54.67
2023-05-24T13:36:32.580Z,55.02
2023-05-24T13:39:13.306Z,53.13
2023-05-24T13:41:42.246Z,54.04
2023-05-24T13:44:10.195Z,55.11
2023-05-24T13:46:37.438Z,53.42
2023-05-24T13:49:05.016Z,53.39
2023-05-24T13:51:31.895Z,51.15
2023-05-24T13:53:59.059Z,52.71
2023-05-24T13:56:27.362Z,54.22
2023-05-24T13:58:55.182Z,55.09
2023-05-24T14:01:22.158Z,54.87
2023-05-24T14:03:48.944Z,53.17
2023-05-24T14:06:15.865Z,54.03
2023-05-24T14:08:42.540Z,52.83
2023-05-24T14:11:09.366Z,54.23
2023-05-24T14:16:06.727Z,53.50
2023-05-24T14:18:33.711Z,54.26
2023-05-24T14:21:00.277Z,52.36
2023-05-24T14:23:27.513Z,53.72
2023-05-24T14:25:54.122Z,52.92
2023-05-24T14:28:20.979Z,53.76
2023-05-24T14:30:47.668Z,53.62
2023-05-24T14:33:14.315Z,53.20
2023-05-24T14:35:41.496Z,53.60
2023-05-24T14:38:10.806Z,53.26
2023-05-24T14:40:40.414Z,54.38
2023-05-24T14:43:10.233Z,52.74
2023-05-24T14:45:38.718Z,52.41
2023-05-24T14:48:05.955Z,50.80
2023-05-24T14:50:32.613Z,51.16
2023-05-24T14:53:00.524Z,51.30
2023-05-24T14:55:27.055Z,50.45
2023-05-24T14:57:53.620Z,50.95
2023-05-24T15:00:22.765Z,51.58
2023-05-24T15:02:50.982Z,51.67
2023-05-24T15:05:17.889Z,53.54
2023-05-24T15:07:44.582Z,53.31
2023-05-24T15:10:11.849Z,53.99
2023-05-24T15:12:40.033Z,52.40
2023-05-24T15:15:07.824Z,53.37
2023-05-24T15:17:34.683Z,54.74
2023-05-24T15:20:01.853Z,51.33
2023-05-24T15:22:28.571Z,51.74
2023-05-24T15:24:56.169Z,51.49
2023-05-24T15:27:23.077Z,51.87
2023-05-24T15:29:54.327Z,52.30
2023-05-24T15:32:21.171Z,51.85
2023-05-24T15:34:47.820Z,50.15
2023-05-24T15:37:14.435Z,50.02
2023-05-24T15:39:41.559Z,51.14
2023-05-24T15:42:08.750Z,50.35
2023-05-24T15:44:35.425Z,51.28
2023-05-24T15:47:02.178Z,52.69
2023-05-24T15:49:29.364Z,52.23
2023-05-24T15:54:25.897Z,50.55
2023-05-24T15:56:52.687Z,52.67
2023-05-24T15:59:21.531Z,52.33
2023-05-24T16:01:48.412Z,54.01
2023-05-24T16:04:15.859Z,53.53
2023-05-24T16:06:42.894Z,54.51
2023-05-24T16:09:09.697Z,55.01
2023-05-24T16:11:36.510Z,54.03
2023-05-24T16:14:03.682Z,54.23
2023-05-24T16:16:30.420Z,54.95
2023-05-24T16:18:56.992Z,55.87
2023-05-24T16:21:24.459Z,55.61
2023-05-24T16:23:51.186Z,56.24
2023-05-24T16:26:19.175Z,54.64
2023-05-24T16:28:45.913Z,54.96
2023-05-24T16:31:12.648Z,55.59
2023-05-24T16:33:39.915Z,56.36
2023-05-24T16:36:06.897Z,55.58
2023-05-24T16:38:34.100Z,55.98
2023-05-24T16:41:00.942Z,56.14
2023-05-24T16:43:27.888Z,56.06
2023-05-24T16:45:55.264Z,55.45
2023-05-24T16:48:29.211Z,56.98
2023-05-24T16:50:56.783Z,55.84
2023-05-24T16:53:27.239Z,56.65
2023-05-24T16:55:56.100Z,56.33
2023-05-24T16:58:24.241Z,57.34
2023-05-24T17:00:51.392Z,57.64
2023-05-24T17:03:18.506Z,57.67
2023-05-24T17:05:46.531Z,57.36
2023-05-24T17:08:13.271Z,57.65
2023-05-24T17:10:43.348Z,57.75
2023-05-24T17:13:10.364Z,58.10
2023-05-24T17:15:37.488Z,59.03
2023-05-24T17:18:04.264Z,58.67
2023-05-24T17:20:32.223Z,59.52
2023-05-24T17:22:58.929Z,60.12
2023-05-24T17:25:25.528Z,59.24
2023-05-24T17:27:53.155Z,58.20
2023-05-24T17:30:25.669Z,59.47
2023-05-24T17:32:52.607Z,58.95
2023-05-24T17:35:19.324Z,58.55
2023-05-24T17:37:46.085Z,59.07
2023-05-24T17:40:12.687Z,59.56
2023-05-24T17:42:39.323Z,59.82
2023-05-24T17:45:07.755Z,59.28
2023-05-24T17:47:35.016Z,59.62
2023-05-24T17:50:03.355Z,60.79
2023-05-24T17:52:30.067Z,60.53
2023-05-24T17:54:56.829Z,60.47
2023-05-24T17:57:23.746Z,60.65
2023-05-24T17:59:50.577Z,60.79
2023-05-24T18:02:17.334Z,60.54
2023-05-24T18:04:44.283Z,59.70
2023-05-24T18:07:11.381Z,60.44
2023-05-24T18:09:39.997Z,60.39
2023-05-24T18:12:08.775Z,60.60
2023-05-24T18:14:35.475Z,60.61
2023-05-24T18:17:02.462Z,61.35
2023-05-24T18:19:29.588Z,61.71
2023-05-24T18:22:02.140Z,61.87
2023-05-24T18:24:28.969Z,61.92
2023-05-24T18:26:55.638Z,61.79
2023-05-24T18:29:22.361Z,63.01
2023-05-24T18:31:49.493Z,63.21
2023-05-24T18:34:18.975Z,63.31
2023-05-24T18:36:45.811Z,63.73
2023-05-24T18:39:14.210Z,63.93
2023-05-24T18:41:40.834Z,64.67
2023-05-24T18:44:07.498Z,65.00
2023-05-24T18:46:34.887Z,65.34
2023-05-24T18:49:03.271Z,65.26
2023-05-24T18:51:36.044Z,65.18
2023-05-24T18:54:02.704Z,65.41
2023-05-24T18:56:29.626Z,66.19
2023-05-24T18:58:58.791Z,66.35
2023-05-24T19:01:27.623Z,67.10
2023-05-24T19:03:54.638Z,66.97
2023-05-24T19:06:21.382Z,67.00
2023-05-24T19:08:49.552Z,67.37
2023-05-24T19:11:16.244Z,67.03
2023-05-24T19:13:43.010Z,67.25
2023-05-24T19:18:52.455Z,68.65
2023-05-24T19:21:19.371Z,68.47
2023-05-24T19:23:47.230Z,68.16
2023-05-24T19:26:18.360Z,67.97
2023-05-24T19:28:50.791Z,68.95
2023-05-24T19:31:24.231Z,68.32
2023-05-24T19:36:26.680Z,68.98
2023-05-24T19:38:54.764Z,68.75
2023-05-24T19:41:21.403Z,69.21
2023-05-24T19:43:48.318Z,69.38
2023-05-24T19:46:16.748Z,69.96
2023-05-24T19:48:44.459Z,69.46
2023-05-24T19:51:13.232Z,69.70
2023-05-24T19:53:40.087Z,70.07
2023-05-24T19:56:06.954Z,70.53
2023-05-24T19:58:33.704Z,70.58
2023-05-24T20:01:01.344Z,70.37
2023-05-24T20:03:28.201Z,70.92
2023-05-24T20:05:56.453Z,71.25
2023-05-24T20:08:24.703Z,70.91
2023-05-24T20:10:51.515Z,71.34
2023-05-24T20:13:18.209Z,71.17
2023-05-24T20:15:44.969Z,71.09
2023-05-24T20:18:14.390Z,71.21
2023-05-24T20:20:41.202Z,71.89
2023-05-24T20:23:09.089Z,72.02
2023-05-24T20:25:35.869Z,71.66
2023-05-24T20:28:04.138Z,72.08
2023-05-24T20:30:31.436Z,71.95
2023-05-24T20:32:58.851Z,72.14
2023-05-24T20:35:25.672Z,72.62
2023-05-24T20:37:52.836Z,72.86
2023-05-24T20:40:28.462Z,73.09
2023-05-24T20:42:55.429Z,73.03
2023-05-24T20:45:22.222Z,73.16
2023-05-24T20:47:49.132Z,73.55
2023-05-24T20:50:15.904Z,73.74
2023-05-24T20:52:42.654Z,74.30
2023-05-24T20:55:09.414Z,74.13
2023-05-24T20:57:36.429Z,74.45
2023-05-24T21:00:05.820Z,74.29
2023-05-24T21:02:32.856Z,74.71
2023-05-24T21:04:59.813Z,74.80
2023-05-24T21:07:27.094Z,75.36
2023-05-24T21:09:54.341Z,75.61
2023-05-24T21:12:23.465Z,76.52
2023-05-24T21:14:54.006Z,76.46
2023-05-24T21:17:20.841Z,76.51
2023-05-24T21:19:47.424Z,76.76
2023-05-24T21:22:14.395Z,76.86
2023-05-24T21:24:41.095Z,76.99
2023-05-24T21:27:07.999Z,77.28
2023-05-24T21:29:38.085Z,77.41
2023-05-24T21:32:04.858Z,77.52
2023-05-24T21:34:33.830Z,77.71
2023-05-24T21:37:01.158Z,77.97
2023-05-24T21:39:27.814Z,78.15
2023-05-24T21:41:54.485Z,78.22
2023-05-24T21:44:22.410Z,78.59
2023-05-24T21:46:50.647Z,79.05
2023-05-24T21:49:17.434Z,79.31
2023-05-24T21:51:45.231Z,79.45
2023-05-24T21:54:11.834Z,79.45
2023-05-24T21:56:38.361Z,80.00
2023-05-24T21:59:05.049Z,80.08
2023-05-24T22:01:31.807Z,80.42
2023-05-24T22:03:59.289Z,81.03
2023-05-24T22:06:26.295Z,80.97
2023-05-24T22:08:55.700Z,81.68
2023-05-24T22:11:22.403Z,81.60
2023-05-24T22:13:49.031Z,81.64
2023-05-24T22:16:15.904Z,81.61
2023-05-24T22:18:42.454Z,82.08
2023-05-24T22:21:09.165Z,82.83
2023-05-24T22:23:35.779Z,83.18
2023-05-24T22:26:02.469Z,83.55
2023-05-24T22:28:29.098Z,83.59
2023-05-24T22:30:57.404Z,83.74
2023-05-24T22:33:23.953Z,83.73
2023-05-24T22:35:51.380Z,84.44
2023-05-24T22:38:17.893Z,84.16
2023-05-24T22:40:45.695Z,84.47
2023-05-24T22:43:12.214Z,84.46
2023-05-24T22:45:38.767Z,84.61
2023-05-24T22:48:05.515Z,84.69
2023-05-24T22:50:32.290Z,84.84
2023-05-24T22:52:58.830Z,84.70
2023-05-24T22:55:25.465Z,84.95
2023-05-24T22:57:51.944Z,84.83
2023-05-24T23:00:18.693Z,84.77
2023-05-24T23:02:45.180Z,84.71
2023-05-24T23:05:11.788Z,85.52
2023-05-24T23:07:39.849Z,85.83
2023-05-24T23:10:08.002Z,85.60
2023-05-24T23:12:35.821Z,85.58
2023-05-24T23:15:02.636Z,86.08
2023-05-24T23:17:29.362Z,86.21
2023-05-24T23:19:56.053Z,86.61
2023-05-24T23:22:23.697Z,86.69
2023-05-24T23:24:50.352Z,86.60
2023-05-24T23:27:17.266Z,86.91
2023-05-24T23:29:43.774Z,86.92
2023-05-24T23:32:10.543Z,87.04
2023-05-24T23:34:37.361Z,87.21
2023-05-24T23:37:04.845Z,87.65
2023-05-24T23:39:31.651Z,87.68
2023-05-24T23:41:58.203Z,87.62
2023-05-24T23:44:25.714Z,88.15
2023-05-24T23:46:53.252Z,88.21
2023-05-24T23:49:20.476Z,88.17
2023-05-24T23:51:47.378Z,88.75
2023-05-24T23:54:19.003Z,89.06
2023-05-24T23:56:45.866Z,89.20
2023-05-24T23:59:12.618Z,88.95
